< < Back
Terminal Aerodrome Forecast


Current Version              Previous Versions:   1  2  3  4  5  6  7  8  9  

Terminal Aerodrome Forecast

505
FTUS44 KMRX 281720
TAFCHA
TAF
KCHA 281720Z 2818/2918 02008KT P6SM SCT050 BKN250
     FM290000 36004KT P6SM SCT250
     FM291400 33005KT P6SM SCT150=



Latest METAR

807
SAUS80 KWBC 281800 RRA
MTRCHA
METAR KCHA 281753Z 34011KT 10SM SCT055 SCT150 BKN210 BKN250 32/17 A3004
RMK AO2 SLP163 T03220172 10328 20239 58006


USA.gov is the U.S. government's official web portal to all federal, state and local government web resources and services.